createdAt,value
2022-09-28T00:02:17.615Z,14.93
2022-09-28T00:05:27.012Z,14.78
2022-09-28T00:08:33.673Z,14.85
2022-09-28T00:11:40.255Z,14.96
2022-09-28T00:14:48.189Z,14.76
2022-09-28T00:17:54.681Z,14.82
2022-09-28T00:21:02.889Z,14.86
2022-09-28T00:24:20.535Z,15.09
2022-09-28T00:27:28.162Z,14.73
2022-09-28T00:30:35.563Z,14.78
2022-09-28T00:33:42.020Z,14.61
2022-09-28T00:36:49.343Z,14.75
2022-09-28T00:39:55.863Z,14.54
2022-09-28T00:43:19.995Z,14.52
2022-09-28T00:46:33.142Z,14.70
2022-09-28T00:49:45.226Z,14.56
2022-09-28T00:52:56.845Z,14.50
2022-09-28T00:56:07.573Z,14.36
2022-09-28T00:59:13.808Z,14.69
2022-09-28T01:02:22.508Z,14.77
2022-09-28T01:05:29.581Z,14.45
2022-09-28T01:08:37.298Z,14.56
2022-09-28T01:11:44.378Z,14.39
2022-09-28T01:14:52.124Z,14.49
2022-09-28T01:18:10.025Z,14.48
2022-09-28T01:21:20.227Z,14.61
2022-09-28T01:24:43.280Z,14.44
2022-09-28T01:27:55.627Z,14.59
2022-09-28T01:31:08.009Z,14.63
2022-09-28T01:34:20.076Z,14.34
2022-09-28T01:37:32.192Z,14.33
2022-09-28T01:40:39.950Z,14.18
2022-09-28T01:43:51.811Z,14.45
2022-09-28T01:47:04.361Z,14.24
2022-09-28T01:50:13.320Z,14.30
2022-09-28T01:53:24.388Z,14.10
2022-09-28T01:56:38.745Z,14.28
2022-09-28T01:59:54.651Z,14.49
2022-09-28T02:03:08.364Z,14.41
2022-09-28T02:06:20.864Z,14.00
2022-09-28T02:09:33.876Z,14.28
2022-09-28T02:12:45.152Z,14.51
2022-09-28T02:15:59.858Z,13.93
2022-09-28T02:19:08.028Z,14.32
2022-09-28T02:22:23.581Z,14.06
2022-09-28T02:25:35.944Z,14.50
2022-09-28T02:28:42.303Z,14.43
2022-09-28T02:31:50.428Z,14.22
2022-09-28T02:34:57.029Z,14.51
2022-09-28T02:38:03.605Z,14.23
2022-09-28T02:41:19.734Z,13.72
2022-09-28T02:44:57.702Z,13.99
2022-09-28T02:48:19.149Z,14.33
2022-09-28T02:51:42.133Z,13.77
2022-09-28T02:55:18.237Z,14.29
2022-09-28T02:58:36.802Z,14.37
2022-09-28T03:01:52.599Z,14.34
2022-09-28T03:05:16.896Z,14.42
2022-09-28T03:08:29.184Z,14.30
2022-09-28T03:11:42.213Z,14.19
2022-09-28T03:14:48.440Z,14.31
2022-09-28T03:17:54.930Z,14.35
2022-09-28T03:21:05.127Z,14.54
2022-09-28T03:24:11.723Z,14.44
2022-09-28T03:27:18.027Z,14.11
2022-09-28T03:30:24.379Z,14.34
2022-09-28T03:33:30.805Z,14.50
2022-09-28T03:36:38.909Z,14.57
2022-09-28T03:39:45.238Z,14.56
2022-09-28T03:42:51.416Z,13.98
2022-09-28T03:45:58.951Z,14.46
2022-09-28T03:49:05.579Z,13.95
2022-09-28T03:52:14.563Z,14.15
2022-09-28T03:55:20.576Z,14.15
2022-09-28T03:58:29.633Z,14.47
2022-09-28T04:01:36.175Z,14.27
2022-09-28T04:04:42.437Z,14.12
2022-09-28T04:07:50.316Z,14.26
2022-09-28T04:10:58.607Z,14.21
2022-09-28T04:14:05.538Z,14.26
2022-09-28T04:17:11.718Z,14.18
2022-09-28T04:20:18.214Z,14.14
2022-09-28T04:23:25.631Z,13.94
2022-09-28T04:26:31.971Z,14.33
2022-09-28T04:29:38.995Z,14.04
2022-09-28T04:32:45.023Z,14.06
2022-09-28T04:35:51.030Z,14.11
2022-09-28T04:38:58.871Z,14.12
2022-09-28T04:42:05.675Z,13.91
2022-09-28T04:45:12.537Z,13.95
2022-09-28T04:48:18.635Z,13.72
2022-09-28T04:51:24.755Z,13.65
2022-09-28T04:54:32.386Z,14.09
2022-09-28T04:57:38.555Z,13.87
2022-09-28T05:00:44.936Z,13.94
2022-09-28T05:03:51.211Z,13.96
2022-09-28T05:06:57.513Z,14.01
2022-09-28T05:10:05.541Z,13.69
2022-09-28T05:13:13.483Z,14.08
2022-09-28T05:16:20.565Z,13.72
2022-09-28T05:19:26.606Z,14.19
2022-09-28T05:22:34.691Z,14.24
2022-09-28T05:25:42.693Z,14.12
2022-09-28T05:28:48.767Z,14.25
2022-09-28T05:31:55.092Z,14.13
2022-09-28T05:35:01.961Z,14.17
2022-09-28T05:38:08.430Z,14.32
2022-09-28T05:41:16.195Z,14.08
2022-09-28T05:44:22.245Z,14.24
2022-09-28T05:47:28.938Z,14.28
2022-09-28T05:50:35.302Z,14.44
2022-09-28T05:53:41.722Z,14.32
2022-09-28T05:56:49.373Z,14.26
2022-09-28T05:59:55.429Z,14.29
2022-09-28T06:03:06.694Z,14.23
2022-09-28T06:06:14.831Z,14.63
2022-09-28T06:09:25.696Z,14.81
2022-09-28T06:12:35.368Z,15.09
2022-09-28T06:15:44.274Z,15.19
2022-09-28T06:18:50.370Z,15.93
2022-09-28T06:21:59.201Z,15.62
2022-09-28T06:25:06.891Z,15.39
2022-09-28T06:28:15.830Z,15.58
2022-09-28T06:31:23.894Z,15.70
2022-09-28T06:34:30.298Z,15.65
2022-09-28T06:37:36.758Z,15.98
2022-09-28T06:40:42.973Z,16.24
2022-09-28T06:43:50.657Z,16.25
2022-09-28T06:46:57.208Z,16.66
2022-09-28T06:50:03.496Z,16.51
2022-09-28T06:53:13.696Z,15.43
2022-09-28T06:56:21.207Z,15.56
2022-09-28T06:59:29.981Z,15.70
2022-09-28T07:02:36.147Z,16.18
2022-09-28T07:05:44.509Z,16.02
2022-09-28T07:09:01.343Z,16.51
2022-09-28T07:12:16.691Z,16.27
2022-09-28T07:15:25.099Z,16.65
2022-09-28T07:18:31.408Z,16.36
2022-09-28T07:21:37.811Z,16.47
2022-09-28T07:24:44.755Z,16.68
2022-09-28T12:06:51.304Z,21.88
2022-09-28T12:10:01.570Z,22.12
2022-09-28T12:13:13.024Z,23.05
2022-09-28T12:17:00.900Z,23.73
2022-09-28T12:19:58.168Z,23.94
2022-09-28T12:23:12.637Z,23.92
2022-09-28T12:26:37.195Z,24.36
2022-09-28T12:29:48.759Z,23.60
2022-09-28T12:33:01.438Z,24.20
2022-09-28T12:36:21.747Z,24.62
2022-09-28T12:39:57.132Z,24.27
2022-09-28T12:43:40.683Z,24.53
2022-09-28T12:46:59.585Z,24.45
2022-09-28T12:50:38.099Z,24.71
2022-09-28T12:54:07.907Z,24.66
2022-09-28T12:57:39.422Z,23.86
2022-09-28T13:00:57.459Z,24.30
2022-09-28T13:04:30.407Z,24.98
2022-09-28T13:07:49.896Z,24.71
2022-09-28T13:11:09.843Z,23.91
2022-09-28T13:14:55.671Z,23.13
2022-09-28T13:18:10.004Z,24.88
2022-09-28T13:21:28.434Z,24.67
2022-09-28T13:24:41.834Z,23.59
2022-09-28T13:27:53.197Z,23.12
2022-09-28T13:31:02.459Z,22.99
2022-09-28T13:34:14.770Z,22.65
2022-09-28T13:37:24.664Z,22.14
2022-09-28T13:41:12.851Z,21.87
2022-09-28T13:44:35.146Z,21.88
2022-09-28T13:48:05.381Z,21.44
2022-09-28T13:51:25.998Z,21.39
2022-09-28T13:54:56.595Z,21.26
2022-09-28T13:58:06.752Z,21.67
2022-09-28T14:01:17.496Z,21.92
2022-09-28T14:04:26.199Z,21.53
2022-09-28T14:08:11.109Z,22.08
2022-09-28T14:11:43.839Z,22.10
2022-09-28T14:14:52.451Z,22.38
2022-09-28T14:18:08.463Z,23.23
2022-09-28T14:21:33.013Z,22.05
2022-09-28T14:24:56.713Z,21.47
2022-09-28T14:28:20.743Z,21.47
2022-09-28T14:31:30.126Z,21.86
2022-09-28T14:34:42.803Z,22.02
2022-09-28T14:38:11.970Z,21.76
2022-09-28T14:41:31.441Z,21.09
2022-09-28T14:45:30.286Z,20.84
2022-09-28T14:48:49.424Z,20.89
2022-09-28T14:52:04.822Z,21.03
2022-09-28T14:55:17.107Z,21.02
2022-09-28T14:58:25.782Z,21.07
2022-09-28T15:01:32.354Z,20.49
2022-09-28T15:04:43.865Z,20.10
2022-09-28T15:07:51.969Z,20.06
2022-09-28T15:11:02.041Z,20.30
2022-09-28T15:14:10.893Z,20.15
2022-09-28T15:17:22.479Z,20.04
2022-09-28T15:20:34.830Z,19.83
2022-09-28T15:23:43.338Z,19.49
2022-09-28T15:26:49.490Z,19.66
2022-09-28T15:29:59.823Z,19.49
2022-09-28T15:33:23.858Z,19.41
2022-09-28T15:36:33.952Z,18.96
2022-09-28T15:39:40.371Z,19.03
2022-09-28T15:42:47.375Z,18.68
2022-09-28T15:46:03.028Z,18.53
2022-09-28T15:49:24.378Z,18.45
2022-09-28T15:52:38.803Z,17.99
2022-09-28T15:55:46.412Z,17.97
2022-09-28T15:59:10.778Z,17.96
2022-09-28T16:02:19.529Z,17.90
2022-09-28T16:05:41.991Z,18.49
2022-09-28T16:08:49.730Z,18.37
2022-09-28T16:11:56.335Z,18.04
2022-09-28T16:15:07.634Z,17.93
2022-09-28T16:18:22.208Z,17.72
2022-09-28T16:21:39.305Z,17.17
2022-09-28T16:24:55.905Z,17.04
2022-09-28T16:28:02.154Z,16.83
2022-09-28T16:31:27.433Z,16.74
2022-09-28T16:34:33.771Z,16.85
2022-09-28T16:37:42.662Z,16.66
2022-09-28T16:40:52.791Z,16.35
2022-09-28T16:44:01.333Z,16.42
2022-09-28T16:47:08.023Z,16.48
2022-09-28T16:50:17.029Z,16.31
2022-09-28T16:53:40.571Z,16.57
2022-09-28T16:56:48.057Z,16.28
2022-09-28T16:59:54.210Z,16.19
2022-09-28T17:03:00.885Z,16.25
2022-09-28T17:06:07.740Z,16.62
2022-09-28T17:09:14.461Z,16.55
2022-09-28T17:12:24.589Z,16.96
2022-09-28T17:15:30.926Z,16.76
2022-09-28T17:18:37.951Z,16.45
2022-09-28T17:21:44.475Z,15.92
2022-09-28T17:24:50.731Z,15.68
2022-09-28T17:27:59.526Z,15.47
2022-09-28T17:31:08.109Z,15.48
2022-09-28T17:34:16.659Z,15.65
2022-09-28T17:37:22.882Z,15.26
2022-09-28T17:40:30.983Z,15.22
2022-09-28T17:43:38.455Z,15.20
2022-09-28T17:46:48.712Z,15.51
2022-09-28T17:49:55.307Z,15.55
2022-09-28T17:53:06.022Z,15.14
2022-09-28T17:56:12.259Z,14.91
2022-09-28T17:59:20.195Z,14.95
2022-09-28T18:02:26.704Z,14.81
2022-09-28T18:05:33.103Z,14.48
2022-09-28T18:08:39.487Z,14.52
2022-09-28T18:11:46.660Z,14.51
2022-09-28T18:14:54.595Z,14.53
2022-09-28T18:18:01.006Z,14.58
2022-09-28T18:21:07.612Z,14.42
2022-09-28T18:24:13.795Z,14.63
2022-09-28T18:27:20.406Z,14.40
2022-09-28T18:30:29.289Z,14.07
2022-09-28T18:33:35.345Z,13.63
2022-09-28T18:36:41.659Z,13.33
2022-09-28T18:39:47.986Z,13.61
2022-09-28T18:42:54.346Z,13.98
2022-09-28T18:46:07.253Z,13.96
2022-09-28T18:49:13.675Z,13.83
2022-09-28T18:52:20.066Z,13.94
2022-09-28T18:55:26.439Z,14.07
2022-09-28T18:58:35.775Z,13.93
2022-09-28T19:01:43.384Z,13.51
2022-09-28T19:04:49.601Z,13.58
2022-09-28T19:07:56.283Z,13.31
2022-09-28T19:11:07.572Z,13.01
2022-09-28T19:14:15.126Z,13.20
2022-09-28T19:17:22.670Z,13.50
2022-09-28T19:20:29.161Z,13.33
2022-09-28T19:23:36.786Z,13.54
2022-09-28T19:30:08.871Z,13.60
2022-09-28T19:33:17.643Z,13.87
2022-09-28T19:36:26.342Z,13.49
2022-09-28T19:39:33.485Z,13.47
2022-09-28T19:42:40.106Z,12.95
2022-09-28T19:45:47.019Z,13.04
2022-09-28T19:48:56.655Z,13.35
2022-09-28T19:52:18.716Z,13.14
2022-09-28T19:55:25.290Z,13.25
2022-09-28T19:58:33.629Z,13.38
2022-09-28T20:01:39.978Z,13.30
2022-09-28T20:04:47.601Z,13.42
2022-09-28T20:07:53.782Z,13.05
2022-09-28T20:11:00.759Z,13.21
2022-09-28T20:14:09.778Z,13.07
2022-09-28T20:17:16.044Z,13.01
2022-09-28T20:20:23.815Z,12.72
2022-09-28T20:23:30.303Z,12.82
2022-09-28T20:26:37.963Z,12.99
2022-09-28T20:29:44.248Z,13.05
2022-09-28T20:32:50.540Z,13.26
2022-09-28T20:35:59.484Z,13.14
2022-09-28T20:39:05.979Z,13.09
2022-09-28T20:42:12.031Z,13.07
2022-09-28T20:45:18.806Z,13.00
2022-09-28T20:48:25.608Z,12.96
2022-09-28T20:51:33.467Z,12.92
2022-09-28T20:54:39.523Z,13.02
2022-09-28T20:57:46.298Z,12.90
2022-09-28T21:00:52.429Z,12.96
2022-09-28T21:04:00.037Z,12.86
2022-09-28T21:07:07.505Z,12.16
2022-09-28T21:10:13.767Z,12.14
2022-09-28T21:13:19.647Z,12.33
2022-09-28T21:16:27.230Z,12.49
2022-09-28T21:19:33.634Z,12.66
2022-09-28T21:22:41.692Z,12.41
2022-09-28T21:25:48.217Z,12.01
2022-09-28T21:28:55.615Z,12.02
2022-09-28T21:32:02.277Z,12.22
2022-09-28T21:35:09.206Z,11.96
2022-09-28T21:38:17.091Z,12.28
2022-09-28T21:41:23.948Z,12.37
2022-09-28T21:44:30.397Z,12.19
2022-09-28T21:47:36.802Z,12.20
2022-09-28T21:50:43.083Z,11.61
2022-09-28T21:53:50.922Z,12.15
2022-09-28T21:56:57.123Z,12.29
2022-09-28T22:00:03.766Z,12.25
2022-09-28T22:03:10.293Z,12.27
2022-09-28T22:06:17.938Z,12.30
2022-09-28T22:09:25.519Z,12.09
2022-09-28T22:12:31.892Z,12.29
2022-09-28T22:15:38.055Z,12.20
2022-09-28T22:18:44.953Z,12.20
2022-09-28T22:21:50.878Z,12.21
2022-09-28T22:24:58.491Z,12.31
2022-09-28T22:28:04.931Z,12.09
2022-09-28T22:31:11.342Z,12.20
2022-09-28T22:34:17.503Z,12.06
2022-09-28T22:37:24.663Z,12.11
2022-09-28T22:40:32.433Z,12.01
2022-09-28T22:43:38.564Z,12.08
2022-09-28T22:46:44.932Z,11.70
2022-09-28T22:49:51.098Z,11.75
2022-09-28T22:52:57.467Z,11.45
2022-09-28T22:56:07.050Z,11.29
2022-09-28T22:59:13.635Z,11.28
2022-09-28T23:02:20.007Z,11.07
2022-09-28T23:05:26.506Z,10.99
2022-09-28T23:08:33.069Z,11.01
2022-09-28T23:11:40.935Z,11.65
2022-09-28T23:14:46.809Z,11.95
2022-09-28T23:17:53.315Z,11.51
2022-09-28T23:21:01.020Z,11.43
2022-09-28T23:24:07.472Z,11.80
2022-09-28T23:27:15.145Z,11.76
2022-09-28T23:30:23.367Z,12.07
2022-09-28T23:33:29.608Z,11.75
2022-09-28T23:36:35.981Z,11.33
2022-09-28T23:39:42.415Z,11.82
2022-09-28T23:42:49.812Z,11.44
2022-09-28T23:45:56.141Z,11.53
2022-09-28T23:49:02.498Z,11.56
2022-09-28T23:52:09.047Z,11.53
2022-09-28T23:55:15.308Z,11.57
2022-09-28T23:58:23.223Z,11.85
